Terminal Aerodrome Forecast
Issued by NWS

Home | Current Version | Previous Version | Text Only | Print | Product List | Glossary On
Versions: 1 2 3 4 5 6 7 8 9 10 11 12 13
000
FTUS41 KAKQ 230500
TAFPHF
TAF
KPHF 230528Z 2306/2406 06006KT P6SM BKN015
     FM231300 06005KT P6SM SCT015 BKN030
     FM231600 08009KT P6SM BKN040
     FM240000 07005KT P6SM BKN020=

USA.gov is the U.S. government's official web portal to all federal, state and local government web resources and services.